Time;durP1;ratioP1;P1;durP2;ratioP2;P2;SDS_P1;SDS_P2;PMS_P1;PMS_P2;Temp;Humidity;BMP_temperature;BMP_pressure;BME280_temperature;BME280_humidity;BME280_pressure;Samples;Min_cycle;Max_cycle;Signal;HPM_P1;HPM_P2
2023/06/28 00:00:15;;;;;;;34.25;13.75;;;;;;;29.11;62.20;100817.84;5057056;28;69990;-46
2023/06/28 00:02:46;;;;;;;30.20;17.07;;;;;;;29.05;64.75;100793.53;5060755;28;65872;-48
2023/06/28 00:05:17;;;;;;;29.52;15.70;;;;;;;28.85;66.43;100748.47;5059526;28;70013;-47
2023/06/28 00:07:48;;;;;;;23.10;13.73;;;;;;;29.28;72.68;100823.66;5056170;28;65859;-48
2023/06/28 00:10:19;;;;;;;15.02;13.50;;;;;;;29.30;76.45;100824.25;5059730;27;69510;-48
2023/06/28 00:12:50;;;;;;;19.65;14.55;;;;;;;29.37;76.62;100816.97;5057076;28;65342;-46
2023/06/28 00:15:21;;;;;;;35.78;15.43;;;;;;;29.45;75.90;100825.88;5060240;28;68820;-49
2023/06/28 00:17:53;;;;;;;24.83;18.25;;;;;;;29.46;75.95;100814.03;5054396;28;65279;-49
2023/06/28 00:20:24;;;;;;;31.75;21.50;;;;;;;29.44;79.21;100824.22;5048334;28;70391;-49
2023/06/28 00:22:56;;;;;;;25.80;19.52;;;;;;;29.42;79.65;100824.44;5061901;28;65872;-43
2023/06/28 00:25:27;;;;;;;16.95;15.15;;;;;;;29.48;80.18;100839.00;5055942;28;70838;-43
2023/06/28 00:27:59;;;;;;;17.10;15.55;;;;;;;29.60;78.68;100845.38;5063239;28;66254;-46
2023/06/28 00:30:31;;;;;;;15.57;13.90;;;;;;;29.64;77.87;100851.22;5038349;28;69850;-44
2023/06/28 00:33:02;;;;;;;15.65;13.95;;;;;;;29.66;78.23;100852.66;5059983;28;66908;-44
2023/06/28 00:35:34;;;;;;;16.92;13.32;;;;;;;29.16;79.06;100774.00;5056835;28;70178;-44
2023/06/28 00:38:08;;;;;;;19.35;14.88;;;;;;;29.75;77.75;100859.50;5052502;28;66037;-42
2023/06/28 00:40:39;;;;;;;21.00;15.65;;;;;;;29.81;77.96;100865.91;5057235;28;70832;-46
2023/06/28 00:43:10;;;;;;;18.43;15.80;;;;;;;29.48;77.97;100811.97;5041061;28;65552;-44
2023/06/28 00:45:41;;;;;;;20.27;16.85;;;;;;;29.91;77.55;100870.88;5052063;28;69821;-41
2023/06/28 00:48:13;;;;;;;20.48;15.68;;;;;;;29.95;76.68;100882.94;5039602;28;65598;-43
2023/06/28 00:50:45;;;;;;;13.45;12.38;;;;;;;30.02;73.72;100881.88;5041495;28;70258;-48
2023/06/28 00:53:19;;;;;;;13.33;12.30;;;;;;;30.03;72.34;100880.84;5058974;28;66138;-47
2023/06/28 00:55:50;;;;;;;12.02;11.05;;;;;;;30.10;71.37;100888.91;5060065;28;70695;-47
2023/06/28 00:58:22;;;;;;;13.00;11.82;;;;;;;30.15;71.01;100891.81;5058936;28;66683;-46
2023/06/28 01:00:54;;;;;;;12.45;11.45;;;;;;;30.16;70.66;100895.34;5061804;28;70119;-48
2023/06/28 01:03:26;;;;;;;11.95;10.93;;;;;;;29.54;70.83;100790.31;5062196;28;65775;-48
2023/06/28 01:05:59;;;;;;;11.70;10.90;;;;;;;30.22;70.83;100892.63;5057920;28;70287;-48
2023/06/28 01:08:30;;;;;;;10.73;9.95;;;;;;;30.23;70.44;100902.41;5059446;28;66090;-48
2023/06/28 01:11:02;;;;;;;10.23;9.52;;;;;;;30.21;69.90;100893.66;5045655;28;69176;-46
2023/06/28 01:13:35;;;;;;;10.48;9.68;;;;;;;30.25;69.40;100894.88;5059312;28;66382;-46
2023/06/28 01:16:06;;;;;;;10.65;9.75;;;;;;;30.22;69.59;100889.91;5060301;28;70276;-46
2023/06/28 01:18:37;;;;;;;9.63;8.93;;;;;;;30.37;69.04;100905.03;5059760;28;65813;-48
2023/06/28 01:21:11;;;;;;;10.13;9.02;;;;;;;30.33;68.83;100901.94;5059734;28;70928;-46
2023/06/28 01:23:42;;;;;;;9.95;8.93;;;;;;;30.40;68.82;100913.56;5059660;28;66004;-48
2023/06/28 01:26:14;;;;;;;11.63;8.98;;;;;;;30.42;68.68;100905.22;5058889;28;69198;-49
2023/06/28 01:28:46;;;;;;;9.38;8.73;;;;;;;30.45;68.95;100904.78;5058187;28;66644;-47
2023/06/28 01:31:17;;;;;;;8.95;8.30;;;;;;;30.23;68.38;100864.53;5058922;28;70177;-47
2023/06/28 01:33:48;;;;;;;8.88;8.27;;;;;;;30.45;68.38;100899.38;5059167;28;66778;-48
2023/06/28 01:36:20;;;;;;;9.02;8.27;;;;;;;29.99;68.26;100830.91;5040217;28;69439;-48
2023/06/28 01:38:53;;;;;;;8.45;7.82;;;;;;;30.55;68.43;100907.84;5044436;28;66335;-49
2023/06/28 01:41:26;;;;;;;8.82;8.27;;;;;;;29.84;68.42;100787.94;5054991;28;70619;-48
2023/06/28 01:43:57;;;;;;;8.40;7.80;;;;;;;30.50;68.48;100894.13;5036816;28;66908;-48
2023/06/28 01:46:30;;;;;;;9.30;8.48;;;;;;;30.36;67.84;100869.03;5037034;28;71190;-47
2023/06/28 01:49:02;;;;;;;8.23;7.82;;;;;;;30.63;68.08;100907.59;5055002;28;67031;-48
2023/06/28 01:51:34;;;;;;;8.75;7.68;;;;;;;30.63;68.27;100904.91;5053622;28;69037;-49
2023/06/28 01:54:05;;;;;;;8.10;7.60;;;;;;;30.64;67.64;100906.53;5051624;28;65695;-48
2023/06/28 01:56:36;;;;;;;9.00;8.50;;;;;;;30.67;67.84;100908.84;5031185;28;70285;-48
2023/06/28 01:59:07;;;;;;;9.02;7.78;;;;;;;30.70;67.70;100913.81;5037690;28;68036;-50
2023/06/28 02:01:39;;;;;;;8.52;8.00;;;;;;;30.73;67.86;100910.66;5038033;28;69921;-47
2023/06/28 02:04:11;;;;;;;8.98;8.48;;;;;;;30.68;67.99;100899.66;5056910;28;65813;-48
2023/06/28 02:06:42;;;;;;;8.03;7.40;;;;;;;30.75;67.97;100905.00;5058949;28;69837;-49
2023/06/28 02:09:13;;;;;;;8.43;7.85;;;;;;;30.77;67.70;100902.09;5058089;28;67141;-48
2023/06/28 02:11:44;;;;;;;8.13;7.53;;;;;;;30.76;67.81;100895.88;5060012;28;69462;-48
2023/06/28 02:14:14;;;;;;;7.97;7.55;;;;;;;30.84;67.42;100892.06;5059549;28;65795;-49
2023/06/28 02:16:45;;;;;;;8.10;7.40;;;;;;;30.75;67.41;100875.22;5059157;28;70046;-48
2023/06/28 02:19:18;;;;;;;8.25;7.65;;;;;;;30.88;67.76;100893.31;5041664;28;66334;-49
2023/06/28 02:21:49;;;;;;;7.53;7.05;;;;;;;30.92;67.28;100889.09;5057755;28;70632;-50
2023/06/28 02:24:21;;;;;;;7.32;6.82;;;;;;;30.89;67.61;100884.13;5036308;28;66076;-48
2023/06/28 02:26:53;;;;;;;8.63;7.95;;;;;;;30.96;67.63;100895.75;5060098;27;69695;-48
2023/06/28 02:29:24;;;;;;;9.85;7.78;;;;;;;30.95;67.65;100891.34;5053727;28;66285;-48
2023/06/28 02:31:56;;;;;;;7.77;7.17;;;;;;;31.00;67.54;100896.13;5059647;28;70126;-48
2023/06/28 02:34:27;;;;;;;8.25;7.65;;;;;;;31.02;67.82;100900.28;5061300;28;65488;-50
2023/06/28 02:36:58;;;;;;;7.97;7.25;;;;;;;31.03;67.57;100891.06;5058241;28;70348;-47
2023/06/28 02:39:30;;;;;;;8.07;7.57;;;;;;;31.06;67.48;100885.22;5059588;28;65567;-48
2023/06/28 02:42:01;;;;;;;7.67;7.07;;;;;;;30.96;67.47;100862.41;5059007;28;70176;-47
2023/06/28 02:44:37;;;;;;;7.82;7.43;;;;;;;30.37;67.85;100758.91;5042083;28;67464;-47
2023/06/28 02:47:08;;;;;;;7.13;6.72;;;;;;;31.16;67.37;100873.88;5039152;28;70238;-48
2023/06/28 02:49:40;;;;;;;8.53;7.73;;;;;;;30.87;67.25;100821.19;5039866;28;65938;-47
2023/06/28 02:52:11;;;;;;;7.80;7.30;;;;;;;31.13;67.69;100861.63;5061765;28;70967;-49
2023/06/28 02:54:42;;;;;;;7.95;7.35;;;;;;;31.22;67.56;100861.34;5059098;28;66503;-48
2023/06/28 02:57:14;;;;;;;8.23;7.72;;;;;;;31.24;67.83;100860.06;5028783;28;69200;-48
2023/06/28 02:59:59;;;;;;;7.30;6.90;;;;;;;31.25;67.68;100855.47;5039155;28;66205;-47
2023/06/28 03:02:31;;;;;;;7.80;7.07;;;;;;;31.27;67.35;100850.66;5056452;28;70742;-47
2023/06/28 03:05:03;;;;;;;9.47;6.93;;;;;;;31.33;67.42;100863.31;5046845;28;65314;-47
2023/06/28 03:07:34;;;;;;;;;;;;;;;31.06;68.73;100858.13;5027298;28;70276;-48
2023/06/28 03:10:05;;;;;;;6.95;6.47;;;;;;;31.25;67.16;100834.59;5040637;28;66693;-49
2023/06/28 03:12:36;;;;;;;;;;;;;;;31.10;68.84;100848.50;5046415;28;70024;-47
2023/06/28 03:15:08;;;;;;;6.88;6.40;;;;;;;31.38;67.43;100848.06;5034370;28;65568;-48
2023/06/28 03:17:39;;;;;;;7.45;7.05;;;;;;;31.30;67.24;100825.81;5048918;28;69535;-47
2023/06/28 03:20:13;;;;;;;7.20;6.80;;;;;;;31.48;67.18;100841.28;5050524;28;65725;-48
2023/06/28 03:22:44;;;;;;;7.03;6.63;;;;;;;31.46;67.10;100835.28;5047287;28;70648;-48
2023/06/28 03:25:15;;;;;;;6.68;6.15;;;;;;;31.53;66.89;100841.44;5044063;28;66638;-48
2023/06/28 03:27:46;;;;;;;7.13;6.73;;;;;;;31.54;67.14;100843.94;5046131;28;69508;-49
2023/06/28 03:30:17;;;;;;;6.85;6.38;;;;;;;31.59;66.96;100835.97;5041719;28;67094;-47
2023/06/28 03:32:49;;;;;;;6.30;5.90;;;;;;;31.60;66.68;100837.59;5043965;28;71021;-48
2023/06/28 03:35:20;;;;;;;6.70;6.20;;;;;;;31.66;66.99;100832.34;5061127;28;66160;-49
2023/06/28 03:37:52;;;;;;;6.40;6.00;;;;;;;31.60;67.07;100826.75;5064963;28;70548;-49
2023/06/28 03:40:23;;;;;;;6.43;5.95;;;;;;;31.29;66.85;100764.53;5060407;28;66363;-48
2023/06/28 03:42:54;;;;;;;6.30;5.90;;;;;;;31.72;66.68;100823.28;5061471;28;70497;-48
2023/06/28 03:45:25;;;;;;;6.45;6.05;;;;;;;31.71;66.44;100827.06;5042403;28;67991;-49
2023/06/28 03:47:58;;;;;;;6.18;5.78;;;;;;;31.77;66.58;100826.16;5051046;28;69974;-50
2023/06/28 03:50:29;;;;;;;6.40;5.80;;;;;;;31.77;66.64;100824.25;5043456;28;66379;-49
2023/06/28 03:53:00;;;;;;;6.00;5.60;;;;;;;31.72;66.64;100798.88;5050368;28;68824;-51
2023/06/28 03:55:32;;;;;;;6.25;5.85;;;;;;;31.81;66.38;100805.63;5048817;28;66587;-48
2023/06/28 03:58:03;;;;;;;5.50;5.20;;;;;;;31.82;66.65;100815.44;5061056;28;70222;-49
2023/06/28 04:00:35;;;;;;;6.30;5.70;;;;;;;31.85;66.59;100817.69;5061512;28;66246;-49
2023/06/28 04:03:06;;;;;;;6.05;5.70;;;;;;;31.87;66.41;100809.31;5060862;28;70612;-47
2023/06/28 04:05:37;;;;;;;5.90;5.50;;;;;;;31.83;66.18;100804.34;5060618;28;65510;-49
2023/06/28 04:08:08;;;;;;;6.10;5.70;;;;;;;31.92;66.35;100815.75;5060591;28;70396;-50
2023/06/28 04:10:40;;;;;;;5.70;5.30;;;;;;;31.66;66.45;100765.38;5068478;28;65796;-50
2023/06/28 04:13:11;;;;;;;5.95;5.40;;;;;;;31.77;66.19;100782.75;5059066;28;70047;-49
2023/06/28 04:15:42;;;;;;;6.43;5.00;;;;;;;31.95;66.06;100804.44;5057964;28;66172;-50
2023/06/28 04:18:13;;;;;;;5.10;4.70;;;;;;;31.96;66.01;100797.97;5061677;28;70183;-48
2023/06/28 04:20:44;;;;;;;5.60;5.10;;;;;;;31.98;65.88;100804.00;5060055;28;65400;-50
2023/06/28 04:23:15;;;;;;;4.43;4.13;;;;;;;31.98;65.80;100801.28;5060252;28;70358;-47
2023/06/28 04:25:46;;;;;;;5.35;4.95;;;;;;;32.03;66.12;100795.16;5062220;28;65863;-50
2023/06/28 04:28:17;;;;;;;4.70;4.40;;;;;;;32.02;65.81;100791.59;5062428;28;69495;-49
2023/06/28 04:30:49;;;;;;;5.17;4.60;;;;;;;31.86;65.81;100758.84;5070125;28;65300;-49
2023/06/28 04:33:22;;;;;;;5.15;4.75;;;;;;;32.05;65.90;100783.00;5061662;28;71484;-49
2023/06/28 04:35:56;;;;;;;4.78;4.47;;;;;;;31.99;65.66;100770.38;5067704;28;66735;-48
2023/06/28 04:38:27;;;;;;;4.88;4.55;;;;;;;32.01;65.62;100760.13;5057236;28;70461;-50
2023/06/28 04:40:57;;;;;;;5.15;4.65;;;;;;;32.07;65.48;100765.66;5058445;28;65499;-49
2023/06/28 04:43:28;;;;;;;4.80;4.50;;;;;;;32.13;65.71;100771.00;5061065;28;70115;-48
2023/06/28 04:45:59;;;;;;;4.63;4.30;;;;;;;32.05;65.65;100753.16;5059171;28;66246;-50
2023/06/28 04:48:30;;;;;;;4.67;4.30;;;;;;;32.16;65.63;100756.97;5072391;28;70240;-50
2023/06/28 04:51:01;;;;;;;4.80;4.35;;;;;;;32.17;65.93;100755.06;5065972;28;66251;-49
2023/06/28 04:53:33;;;;;;;4.75;4.35;;;;;;;32.07;65.52;100730.38;5060849;28;69718;-47
2023/06/28 04:56:05;;;;;;;4.57;4.25;;;;;;;32.18;65.58;100751.28;5060246;28;65521;-47
2023/06/28 04:58:37;;;;;;;;;;;;;;;31.90;66.87;100751.88;5061496;28;69775;-49
2023/06/28 05:01:09;;;;;;;4.85;4.43;;;;;;;32.18;65.68;100749.44;5060975;28;65460;-48
2023/06/28 05:03:40;;;;;;;4.50;4.20;;;;;;;32.21;65.81;100746.25;5060080;28;70081;-47
2023/06/28 05:06:11;;;;;;;4.50;4.10;;;;;;;32.23;65.86;100740.56;5061276;28;65769;-50
2023/06/28 05:08:43;;;;;;;3.70;3.40;;;;;;;32.25;65.79;100735.75;5053041;28;70350;-51
2023/06/28 05:11:14;;;;;;;4.88;4.47;;;;;;;32.20;65.50;100722.03;5054043;28;65603;-50
2023/06/28 05:13:44;;;;;;;4.13;3.83;;;;;;;31.91;65.49;100664.03;5060754;28;69563;-50
2023/06/28 05:16:16;;;;;;;4.00;3.70;;;;;;;32.32;65.43;100720.19;5056811;28;66604;-48
2023/06/28 05:18:47;;;;;;;4.05;3.75;;;;;;;32.23;65.19;100697.16;5058979;28;70245;-49
2023/06/28 05:21:18;;;;;;;4.00;3.70;;;;;;;32.37;65.11;100708.63;5058047;28;67518;-49
2023/06/28 05:23:48;;;;;;;4.23;3.90;;;;;;;32.37;65.14;100695.84;5058410;28;71680;-49
2023/06/28 05:26:19;;;;;;;4.25;3.80;;;;;;;32.22;65.20;100654.78;5060693;28;66775;-51
2023/06/28 05:28:51;;;;;;;3.83;3.53;;;;;;;32.31;65.00;100672.38;5057547;28;70609;-49
2023/06/28 05:31:22;;;;;;;7.37;3.47;;;;;;;32.38;65.27;100673.09;5057791;28;65888;-49
2023/06/28 05:33:53;;;;;;;4.13;3.83;;;;;;;32.42;65.26;100676.97;5057859;28;70181;-50
2023/06/28 05:36:23;;;;;;;6.68;3.78;;;;;;;32.53;65.14;100688.13;5060460;28;66100;-48
2023/06/28 05:38:56;;;;;;;4.65;3.45;;;;;;;32.53;65.14;100682.69;5057776;28;70452;-49
2023/06/28 05:41:27;;;;;;;4.03;3.72;;;;;;;32.09;64.95;100595.31;5054693;28;66917;-50
2023/06/28 05:43:58;;;;;;;3.20;3.00;;;;;;;32.54;65.21;100668.03;5055188;28;69652;-48
2023/06/28 05:46:29;;;;;;;4.10;3.70;;;;;;;32.60;65.00;100680.69;5055782;28;65726;-49
2023/06/28 05:49:01;;;;;;;4.33;3.67;;;;;;;32.52;64.81;100651.19;5056746;28;69653;-51
2023/06/28 05:51:32;;;;;;;3.70;3.38;;;;;;;32.63;64.96;100669.34;5054581;28;65482;-50
2023/06/28 05:54:03;;;;;;;3.90;3.53;;;;;;;32.57;65.01;100662.97;5054502;28;69849;-50
2023/06/28 05:56:34;;;;;;;2.97;2.77;;;;;;;32.66;64.91;100663.44;5054956;28;66375;-50
2023/06/28 05:59:04;;;;;;;3.22;3.03;;;;;;;32.68;64.86;100658.56;5052947;28;70678;-49
2023/06/28 06:01:36;;;;;;;3.58;2.97;;;;;;;32.52;64.89;100634.88;5037406;28;65414;-48
2023/06/28 06:04:07;;;;;;;3.85;3.55;;;;;;;32.72;64.93;100651.63;5056364;28;70467;-49
2023/06/28 06:06:38;;;;;;;3.08;2.78;;;;;;;32.67;64.82;100651.50;5054425;28;66909;-50
2023/06/28 06:09:09;;;;;;;3.70;3.40;;;;;;;32.72;64.74;100649.72;5054301;28;69951;-49
2023/06/28 06:11:41;;;;;;;3.58;3.28;;;;;;;32.32;64.91;100579.03;5037942;28;66919;-49
2023/06/28 06:14:12;;;;;;;3.40;3.00;;;;;;;32.80;64.65;100634.97;5058899;28;69714;-50
2023/06/28 06:16:43;;;;;;;3.17;2.93;;;;;;;32.78;64.59;100626.22;5058282;28;67285;-49
2023/06/28 06:19:15;;;;;;;3.65;3.03;;;;;;;32.79;64.66;100619.75;5041334;28;70198;-49
2023/06/28 06:21:45;;;;;;;3.13;2.83;;;;;;;32.84;64.52;100619.81;5059633;28;65558;-50
2023/06/28 06:24:16;;;;;;;3.23;2.93;;;;;;;32.82;64.44;100615.69;5055759;28;70193;-49
2023/06/28 06:26:47;;;;;;;3.25;2.75;;;;;;;32.85;64.63;100609.81;5049434;28;66409;-48
2023/06/28 06:29:18;;;;;;;2.97;2.77;;;;;;;32.89;64.55;100602.81;5059568;28;69056;-48
2023/06/28 06:31:49;;;;;;;3.25;2.90;;;;;;;32.90;64.30;100586.28;5060742;28;65456;-50
2023/06/28 06:34:20;;;;;;;2.90;2.40;;;;;;;32.92;64.48;100573.25;5058730;28;70137;-50
2023/06/28 06:36:51;;;;;;;2.80;2.60;;;;;;;32.94;64.21;100573.84;5041546;28;66852;-50
2023/06/28 06:39:22;;;;;;;2.97;2.77;;;;;;;32.94;64.19;100565.69;5041041;28;70210;-50
2023/06/28 06:41:53;;;;;;;2.60;2.40;;;;;;;32.79;64.17;100530.09;5058163;28;66305;-50
2023/06/28 06:44:25;;;;;;;4.00;3.00;;;;;;;33.03;63.87;100560.72;5030345;28;70190;-49
2023/06/28 06:46:57;;;;;;;3.57;3.00;;;;;;;32.96;64.05;100545.59;5055999;28;65290;-50
2023/06/28 06:49:28;;;;;;;3.20;2.90;;;;;;;33.04;63.69;100547.97;5059303;28;70976;-49
2023/06/28 06:52:00;;;;;;;3.47;3.17;;;;;;;33.05;63.89;100546.91;5059418;28;66466;-50
2023/06/28 06:54:31;;;;;;;5.35;3.40;;;;;;;33.06;63.77;100534.97;5059327;28;70390;-48
2023/06/28 06:57:02;;;;;;;3.40;2.80;;;;;;;33.11;63.73;100537.78;5059469;28;66533;-50
2023/06/28 06:59:33;;;;;;;5.20;3.28;;;;;;;33.09;63.88;100529.03;5059351;28;69298;-49
2023/06/28 07:02:05;;;;;;;3.00;2.80;;;;;;;33.12;63.61;100539.41;5051074;28;65972;-48
2023/06/28 07:04:38;;;;;;;3.33;3.03;;;;;;;33.05;63.47;100511.59;5058226;28;69898;-49
2023/06/28 07:07:09;;;;;;;3.80;3.00;;;;;;;33.06;63.45;100513.22;5059318;28;66284;-49
2023/06/28 07:09:40;;;;;;;2.90;2.70;;;;;;;33.19;63.20;100531.94;5028688;28;68154;-51
2023/06/28 07:12:11;;;;;;;3.28;2.58;;;;;;;33.06;63.04;100502.34;5058773;28;65998;-50
2023/06/28 07:14:42;;;;;;;3.90;3.00;;;;;;;33.22;63.23;100528.75;5060724;28;70132;-51
2023/06/28 07:17:13;;;;;;;3.55;3.20;;;;;;;33.25;63.14;100517.38;5060390;28;66277;-50
2023/06/28 07:19:44;;;;;;;3.50;2.85;;;;;;;33.20;63.13;100506.41;5059337;28;68687;-49
2023/06/28 07:22:15;;;;;;;3.08;2.63;;;;;;;33.09;63.41;100485.56;5058813;28;66343;-50
2023/06/28 07:24:46;;;;;;;3.95;2.88;;;;;;;33.26;63.18;100508.13;5058031;28;69753;-49
2023/06/28 07:27:17;;;;;;;3.03;2.60;;;;;;;33.25;63.18;100495.63;5055716;28;65711;-48
2023/06/28 07:29:48;;;;;;;2.95;2.70;;;;;;;32.78;62.86;100430.66;5057484;28;70038;-50
2023/06/28 07:32:20;;;;;;;3.20;2.95;;;;;;;33.23;63.23;100500.47;5058744;28;65794;-49
2023/06/28 07:34:51;;;;;;;2.80;2.60;;;;;;;33.27;63.30;100506.28;5048090;28;70021;-48
2023/06/28 07:37:23;;;;;;;3.83;2.90;;;;;;;33.16;63.32;100483.53;5058106;28;66587;-49
2023/06/28 07:39:54;;;;;;;5.07;3.17;;;;;;;33.26;63.26;100485.56;5041917;28;69736;-49
2023/06/28 07:42:26;;;;;;;2.85;2.65;;;;;;;33.29;63.06;100490.50;5058898;28;65527;-50
2023/06/28 07:44:58;;;;;;;2.78;2.47;;;;;;;33.26;63.06;100497.25;5063661;28;69673;-48
2023/06/28 07:47:29;;;;;;;3.37;2.83;;;;;;;33.19;63.08;100502.06;5057051;28;67782;-48
2023/06/28 07:50:00;;;;;;;3.42;3.13;;;;;;;33.25;63.43;100517.38;5058680;28;70451;-49
2023/06/28 07:52:31;;;;;;;5.40;2.92;;;;;;;33.23;63.43;100524.94;5057638;28;67427;-48
2023/06/28 07:55:05;;;;;;;3.13;2.88;;;;;;;33.27;63.37;100539.72;5057622;28;70443;-49
2023/06/28 07:57:36;;;;;;;2.80;2.60;;;;;;;33.27;63.31;100525.28;5061383;28;65976;-48
2023/06/28 08:00:10;;;;;;;3.35;2.92;;;;;;;33.28;63.25;100516.06;5061703;28;70478;-49
2023/06/28 08:02:40;;;;;;;4.10;3.40;;;;;;;32.75;63.31;100442.00;5060935;28;66316;-49
2023/06/28 08:05:12;;;;;;;;;;;;;;;32.92;64.13;100516.19;5060347;28;70921;-48
2023/06/28 08:07:42;;;;;;;3.25;2.85;;;;;;;33.18;63.52;100522.13;5043666;28;66444;-47
2023/06/28 08:10:13;;;;;;;4.03;3.07;;;;;;;33.10;63.44;100508.97;5063628;28;71066;-49
2023/06/28 08:12:44;;;;;;;3.90;2.87;;;;;;;33.20;63.73;100524.63;5052621;28;66269;-49
2023/06/28 08:15:15;;;;;;;2.95;2.75;;;;;;;33.19;63.40;100526.50;5060345;28;69893;-48
2023/06/28 08:17:50;;;;;;;3.08;2.85;;;;;;;33.10;63.73;100506.25;5055562;28;66551;-48
2023/06/28 08:20:21;;;;;;;3.30;2.63;;;;;;;33.05;63.57;100495.28;5056124;28;69916;-47
2023/06/28 08:22:52;;;;;;;3.63;2.95;;;;;;;33.17;63.64;100519.66;5056962;28;66688;-48
2023/06/28 08:25:25;;;;;;;6.10;2.90;;;;;;;33.18;63.67;100513.97;5062290;28;43092;-48
2023/06/28 08:27:56;;;;;;;3.63;3.33;;;;;;;33.18;63.77;100510.44;5047016;28;66916;-49
2023/06/28 08:30:27;;;;;;;3.05;2.85;;;;;;;33.07;63.90;100490.41;5061773;28;70073;-48
2023/06/28 08:32:58;;;;;;;3.20;2.90;;;;;;;32.68;64.11;100420.44;5060393;28;65892;-49
2023/06/28 08:35:29;;;;;;;2.70;2.47;;;;;;;32.94;63.87;100462.44;5061400;28;70782;-49
2023/06/28 08:38:00;;;;;;;3.70;3.40;;;;;;;33.01;63.79;100469.66;5062089;28;66626;-49
2023/06/28 08:40:31;;;;;;;3.33;3.03;;;;;;;33.07;64.12;100487.69;5044593;28;70755;-50
2023/06/28 08:43:02;;;;;;;3.75;3.13;;;;;;;33.11;64.01;100527.72;5063664;28;65718;-48
2023/06/28 08:45:34;;;;;;;3.63;3.00;;;;;;;33.10;64.19;100514.41;5049164;28;69707;-48
2023/06/28 08:48:05;;;;;;;3.85;3.55;;;;;;;32.92;64.44;100490.94;5059711;28;66649;-48
2023/06/28 08:50:58;;;;;;;3.53;3.22;;;;;;;33.04;64.77;100526.22;5050918;28;69927;-49
2023/06/28 08:53:30;;;;;;;3.17;2.97;;;;;;;33.03;64.71;100551.75;5060044;28;65377;-47
2023/06/28 08:56:02;;;;;;;4.00;3.35;;;;;;;32.86;65.19;100557.94;5060669;28;70431;-48
2023/06/28 08:58:34;;;;;;;3.45;3.15;;;;;;;32.87;65.22;100570.44;5060283;28;65509;-48
2023/06/28 09:01:06;;;;;;;3.50;3.20;;;;;;;32.97;64.95;100596.19;5059027;28;70080;-49
2023/06/28 09:03:43;;;;;;;2.85;2.65;;;;;;;32.82;65.47;100583.94;5060827;28;67837;-47
2023/06/28 09:06:15;;;;;;;3.17;2.80;;;;;;;32.89;65.68;100594.66;5035568;28;70330;-49
2023/06/28 09:08:48;;;;;;;3.65;3.30;;;;;;;32.86;65.87;100601.41;5059529;28;65687;-48
2023/06/28 09:11:19;;;;;;;3.17;2.95;;;;;;;32.86;65.28;100606.81;5060737;28;70767;-48
2023/06/28 09:13:50;;;;;;;4.97;3.00;;;;;;;32.85;65.92;100615.22;5034578;28;65404;-49
2023/06/28 09:16:22;;;;;;;2.97;2.70;;;;;;;32.62;66.21;100588.94;5043183;28;69344;-48
2023/06/28 09:18:53;;;;;;;4.35;2.70;;;;;;;32.42;65.56;100552.09;5059743;28;66088;-48
2023/06/28 09:21:26;;;;;;;4.03;3.70;;;;;;;32.75;66.59;100617.72;5043060;28;70473;-47
2023/06/28 09:23:57;;;;;;;3.60;3.30;;;;;;;32.67;66.30;100608.06;5044214;28;65989;-48
2023/06/28 09:26:33;;;;;;;4.05;3.65;;;;;;;32.77;67.43;100634.63;5048240;28;70416;-50
2023/06/28 09:29:13;;;;;;;4.03;3.63;;;;;;;32.68;67.47;100631.41;5060312;28;66111;-48
2023/06/28 09:31:46;;;;;;;7.78;3.78;;;;;;;32.52;67.09;100602.31;5061557;28;69642;-49
2023/06/28 09:34:22;;;;;;;4.68;3.70;;;;;;;32.59;67.53;100611.13;5061300;28;65205;-48
2023/06/28 09:36:55;;;;;;;4.20;3.90;;;;;;;32.61;67.23;100604.41;5061445;28;70268;-48
2023/06/28 09:39:26;;;;;;;6.30;3.60;;;;;;;32.70;67.61;100608.38;5060391;28;66856;-49
2023/06/28 09:41:58;;;;;;;3.72;3.03;;;;;;;32.64;67.60;100594.94;5061587;28;70408;-48
2023/06/28 09:44:30;;;;;;;3.40;3.07;;;;;;;31.61;67.93;100427.13;5058375;27;67329;-49
2023/06/28 09:47:03;;;;;;;4.75;3.30;;;;;;;32.06;67.40;100504.34;5058906;28;70848;-49
2023/06/28 09:49:34;;;;;;;3.47;3.17;;;;;;;32.60;67.51;100591.09;5060232;28;65758;-50
2023/06/28 09:52:08;;;;;;;3.83;3.28;;;;;;;32.60;67.63;100607.38;5057554;28;69847;-48
2023/06/28 09:54:44;;;;;;;3.35;2.85;;;;;;;32.46;67.29;100588.63;5055752;28;66243;-51
2023/06/28 09:57:16;;;;;;;3.22;2.88;;;;;;;32.60;67.39;100597.34;5043302;28;70022;-48
2023/06/28 09:59:48;;;;;;;;;;;;;;;32.25;69.02;100602.75;5055477;28;65977;-50
2023/06/28 10:02:22;;;;;;;5.00;4.50;;;;;;;31.68;71.24;100496.66;5053531;28;69192;-48
2023/06/28 10:04:55;;;;;;;4.70;4.30;;;;;;;31.67;72.44;100500.44;5049182;28;65872;-47
2023/06/28 10:07:27;;;;;;;8.27;4.43;;;;;;;32.03;72.99;100573.47;5062131;28;69282;-49
2023/06/28 10:09:58;;;;;;;7.18;4.68;;;;;;;31.89;73.80;100569.31;5054160;28;65168;-49
2023/06/28 10:12:31;;;;;;;5.88;5.38;;;;;;;31.28;74.67;100492.69;5058325;28;70380;-52
2023/06/28 10:15:07;;;;;;;6.07;5.38;;;;;;;31.78;74.92;100606.22;5048283;28;65342;-49
2023/06/28 10:17:38;;;;;;;6.13;5.53;;;;;;;31.12;75.35;100493.34;5039788;28;70089;-47
2023/06/28 10:20:10;;;;;;;6.38;5.50;;;;;;;31.28;75.70;100521.69;5055654;28;66613;-49
2023/06/28 10:22:42;;;;;;;6.80;6.03;;;;;;;31.66;75.71;100574.72;5057050;28;70114;-50
2023/06/28 10:25:13;;;;;;;10.77;6.30;;;;;;;31.54;76.03;100559.25;5057905;28;64168;-51
2023/06/28 10:27:46;;;;;;;6.38;5.35;;;;;;;31.49;76.08;100566.44;5052699;28;70043;-51
2023/06/28 10:30:17;;;;;;;10.02;7.05;;;;;;;31.54;76.00;100580.94;5058312;28;65298;-47
2023/06/28 10:32:51;;;;;;;14.35;7.68;;;;;;;31.07;76.77;100532.00;5055649;28;70629;-49
2023/06/28 10:35:23;;;;;;;12.32;7.82;;;;;;;31.36;77.56;100595.38;5054677;28;65663;-47
2023/06/28 10:37:58;;;;;;;11.15;8.75;;;;;;;31.42;77.76;100612.59;5056228;28;70356;-46
2023/06/28 10:40:30;;;;;;;8.98;8.05;;;;;;;31.02;78.31;100569.78;5055697;28;67011;-52
2023/06/28 10:43:01;;;;;;;8.93;8.13;;;;;;;31.39;78.55;100623.91;5054354;28;69217;-51
2023/06/28 10:45:41;;;;;;;8.23;7.40;;;;;;;31.43;77.64;100618.88;5058429;28;65417;-50
2023/06/28 10:48:19;;;;;;;8.10;7.55;;;;;;;30.95;77.45;100520.28;5055675;28;70387;-56
2023/06/28 10:50:51;;;;;;;8.23;7.55;;;;;;;31.55;77.78;100612.41;5040478;28;66272;-54
2023/06/28 10:53:27;;;;;;;9.18;7.82;;;;;;;30.93;77.30;100500.75;5055397;28;70478;-49
2023/06/28 10:56:14;;;;;;;14.98;9.27;;;;;;;31.61;77.68;100606.06;5055297;28;66661;-49
2023/06/28 10:58:52;;;;;;;11.35;10.15;;;;;;;31.70;77.58;100603.03;5060065;28;69929;-51
2023/06/28 11:01:38;;;;;;;13.02;11.82;;;;;;;31.03;77.57;100501.00;5056142;28;65581;-49
2023/06/28 11:04:23;;;;;;;16.67;12.45;;;;;;;31.23;77.50;100526.97;5057877;28;70016;-48
2023/06/28 11:07:17;;;;;;;12.93;11.75;;;;;;;31.64;77.51;100609.38;5045285;28;65376;-52
2023/06/28 11:10:10;;;;;;;12.90;11.63;;;;;;;31.64;77.41;100610.19;5055759;28;71743;-50
2023/06/28 11:12:41;;;;;;;18.85;12.32;;;;;;;31.69;77.54;100609.50;5058319;28;66380;-48
2023/06/28 11:15:13;;;;;;;14.27;12.87;;;;;;;31.56;77.88;100608.63;5053487;28;70375;-51
2023/06/28 11:17:45;;;;;;;;;;;;;;;31.56;78.78;100629.50;5057071;28;65997;-47
2023/06/28 11:20:16;;;;;;;13.35;12.15;;;;;;;31.50;78.26;100590.59;5052884;28;69371;-49
2023/06/28 11:22:49;;;;;;;;;;;;;;;31.56;78.96;100651.19;5056054;28;66249;-49
2023/06/28 11:25:29;;;;;;;11.45;10.55;;;;;;;31.73;77.82;100656.78;5055342;28;68946;-51
2023/06/28 11:28:03;;;;;;;12.52;11.23;;;;;;;31.77;78.17;100660.69;5056574;28;67634;-52
2023/06/28 11:31:20;;;;;;;14.38;10.10;;;;;;;31.68;78.23;100657.50;5052849;28;70313;-53
2023/06/28 11:33:57;;;;;;;11.15;10.13;;;;;;;31.63;78.47;100646.50;5038726;28;65749;-53
2023/06/28 11:36:29;;;;;;;10.07;9.20;;;;;;;31.46;78.16;100624.66;5059665;28;70497;-47
2023/06/28 11:39:00;;;;;;;10.05;9.15;;;;;;;31.77;77.78;100687.81;5042099;28;66896;-47
2023/06/28 11:41:35;;;;;;;10.38;9.65;;;;;;;31.73;78.07;100690.19;5061797;28;71448;-50
2023/06/28 11:44:07;;;;;;;10.57;9.60;;;;;;;31.77;78.08;100704.91;5061414;28;67157;-48
2023/06/28 11:46:40;;;;;;;10.13;9.23;;;;;;;31.76;77.66;100703.28;5064630;28;69255;-47